NKS2509 KLAS-KRNO
Flight info
| Callsign | NKS2509 |
|---|---|
| Flight time | N/A |
| Altitude | 36000 |
| Route | JOHKR5 KENNO SCOLA1 |
| Aircraft | A320/M-SDE3FGHIRWY/LB1 |
Departure
| Time | 2026-05-05 17:42 |
|---|---|
| Airport | Harry Reid International Airport (KLAS) |
Arrival
| Time | N/A |
|---|---|
| Airport | Reno Tahoe International Airport (KRNO) |
| Time | Latitude | Longitude | Altitude | Speed | Heading |
|---|---|---|---|---|---|
| 2026-05-05 16:49 | 36.08494 | -115.15402 | 2097 ft | 0 kts | 334° |
| 2026-05-05 17:22 | 36.08462 | -115.15382 | 2097 ft | 4 kts | 330° |
| 2026-05-05 17:22 | 36.08440 | -115.15364 | 2097 ft | 4 kts | 321° |
| 2026-05-05 17:22 | 36.08422 | -115.15341 | 2097 ft | 4 kts | 285° |
| 2026-05-05 17:22 | 36.08421 | -115.15325 | 2097 ft | 0 kts | 245° |
| 2026-05-05 17:29 | 36.08420 | -115.15328 | 2097 ft | 1 kts | 245° |
| 2026-05-05 17:29 | 36.08407 | -115.15362 | 2097 ft | 9 kts | 243° |
| 2026-05-05 17:30 | 36.08372 | -115.15452 | 2097 ft | 13 kts | 245° |
| 2026-05-05 17:30 | 36.08335 | -115.15552 | 2099 ft | 8 kts | 245° |
| 2026-05-05 17:30 | 36.08302 | -115.15576 | 2099 ft | 6 kts | 163° |
| 2026-05-05 17:30 | 36.08261 | -115.15557 | 2099 ft | 7 kts | 154° |
| 2026-05-05 17:31 | 36.08208 | -115.15525 | 2099 ft | 10 kts | 154° |
| 2026-05-05 17:31 | 36.08131 | -115.15480 | 2098 ft | 14 kts | 154° |
| 2026-05-05 17:31 | 36.08029 | -115.15421 | 2098 ft | 18 kts | 155° |
| 2026-05-05 17:31 | 36.07915 | -115.15355 | 2099 ft | 17 kts | 154° |
| 2026-05-05 17:32 | 36.07878 | -115.15228 | 2099 ft | 18 kts | 91° |
| 2026-05-05 17:32 | 36.07875 | -115.15065 | 2098 ft | 20 kts | 98° |
| 2026-05-05 17:32 | 36.07864 | -115.14892 | 2098 ft | 21 kts | 94° |
| 2026-05-05 17:32 | 36.07852 | -115.14704 | 2097 ft | 23 kts | 95° |
| 2026-05-05 17:33 | 36.07838 | -115.14505 | 2096 ft | 22 kts | 94° |
| 2026-05-05 17:33 | 36.07827 | -115.14311 | 2096 ft | 20 kts | 90° |
| 2026-05-05 17:33 | 36.07828 | -115.14127 | 2094 ft | 23 kts | 89° |
| 2026-05-05 17:33 | 36.07828 | -115.13923 | 2093 ft | 25 kts | 90° |
| 2026-05-05 17:34 | 36.07828 | -115.13707 | 2092 ft | 24 kts | 90° |
| 2026-05-05 17:34 | 36.07828 | -115.13492 | 2091 ft | 26 kts | 90° |
| 2026-05-05 17:34 | 36.07828 | -115.13267 | 2087 ft | 21 kts | 89° |
| 2026-05-05 17:34 | 36.07828 | -115.13085 | 2081 ft | 23 kts | 90° |
| 2026-05-05 17:35 | 36.07828 | -115.12873 | 2072 ft | 26 kts | 90° |
| 2026-05-05 17:35 | 36.07829 | -115.12670 | 2064 ft | 23 kts | 90° |
| 2026-05-05 17:35 | 36.07829 | -115.12469 | 2058 ft | 25 kts | 90° |
| 2026-05-05 17:35 | 36.07829 | -115.12311 | 2054 ft | 12 kts | 90° |
| 2026-05-05 17:36 | 36.07800 | -115.12224 | 2052 ft | 10 kts | 129° |
| 2026-05-05 17:36 | 36.07758 | -115.12160 | 2049 ft | 5 kts | 129° |
| 2026-05-05 17:36 | 36.07750 | -115.12149 | 2049 ft | 0 kts | 129° |
| 2026-05-05 17:36 | 36.07745 | -115.12142 | 2049 ft | 3 kts | 129° |
| 2026-05-05 17:37 | 36.07716 | -115.12127 | 2049 ft | 6 kts | 168° |
| 2026-05-05 17:37 | 36.07682 | -115.12125 | 2049 ft | 8 kts | 180° |
| 2026-05-05 17:37 | 36.07643 | -115.12172 | 2049 ft | 0 kts | 270° |
| 2026-05-05 17:41 | 36.07643 | -115.12192 | 2049 ft | 14 kts | 270° |
| 2026-05-05 17:41 | 36.07642 | -115.12626 | 2064 ft | 81 kts | 270° |
| 2026-05-05 17:41 | 36.07642 | -115.13539 | 2091 ft | 129 kts | 270° |
| 2026-05-05 17:42 | 36.07639 | -115.14817 | 2106 ft | 167 kts | 272° |
| 2026-05-05 17:42 | 36.07642 | -115.16254 | 2631 ft | 167 kts | 271° |
| 2026-05-05 17:42 | 36.07643 | -115.17699 | 3273 ft | 170 kts | 268° |
| 2026-05-05 17:42 | 36.07636 | -115.19233 | 3625 ft | 189 kts | 268° |
| 2026-05-05 17:43 | 36.07596 | -115.20947 | 3851 ft | 211 kts | 260° |
| 2026-05-05 17:43 | 36.07324 | -115.22834 | 4146 ft | 235 kts | 258° |
| 2026-05-05 17:43 | 36.06890 | -115.24807 | 4833 ft | 240 kts | 240° |
| 2026-05-05 17:43 | 36.05776 | -115.26357 | 5455 ft | 252 kts | 210° |
| 2026-05-05 17:44 | 36.04124 | -115.27206 | 6059 ft | 263 kts | 199° |
| 2026-05-05 17:44 | 36.02381 | -115.27977 | 6804 ft | 269 kts | 199° |
| 2026-05-05 17:44 | 36.00604 | -115.28770 | 7598 ft | 274 kts | 199° |
| 2026-05-05 17:44 | 35.98815 | -115.29651 | 7936 ft | 279 kts | 207° |
| 2026-05-05 17:45 | 35.97114 | -115.30781 | 8662 ft | 282 kts | 208° |
| 2026-05-05 17:45 | 35.95371 | -115.31930 | 9456 ft | 286 kts | 207° |
| 2026-05-05 17:45 | 35.93597 | -115.33092 | 10189 ft | 291 kts | 208° |
| 2026-05-05 17:45 | 35.91796 | -115.34274 | 10797 ft | 296 kts | 210° |
| 2026-05-05 17:46 | 35.90181 | -115.35846 | 10969 ft | 297 kts | 229° |
| 2026-05-05 17:46 | 35.89073 | -115.37974 | 11012 ft | 296 kts | 248° |
| 2026-05-05 17:46 | 35.88580 | -115.40428 | 11008 ft | 296 kts | 266° |
| 2026-05-05 17:46 | 35.88601 | -115.42962 | 11014 ft | 296 kts | 272° |
| 2026-05-05 17:47 | 35.88661 | -115.45503 | 11012 ft | 296 kts | 271° |
| 2026-05-05 17:47 | 35.88715 | -115.48038 | 11014 ft | 296 kts | 271° |
| 2026-05-05 17:47 | 35.88765 | -115.50580 | 11004 ft | 296 kts | 271° |
| 2026-05-05 17:47 | 35.88810 | -115.53083 | 11000 ft | 296 kts | 271° |
| 2026-05-05 17:48 | 35.88856 | -115.55619 | 11012 ft | 296 kts | 271° |
| 2026-05-05 17:48 | 35.88903 | -115.58202 | 11059 ft | 312 kts | 271° |
| 2026-05-05 17:48 | 35.88956 | -115.60971 | 11267 ft | 333 kts | 271° |
| 2026-05-05 17:48 | 35.89012 | -115.63861 | 11815 ft | 340 kts | 271° |
| 2026-05-05 17:49 | 35.89071 | -115.66802 | 12439 ft | 345 kts | 271° |
| 2026-05-05 17:49 | 35.89128 | -115.69781 | 13097 ft | 349 kts | 270° |
| 2026-05-05 17:49 | 35.89183 | -115.72792 | 13779 ft | 352 kts | 271° |
| 2026-05-05 17:49 | 35.89237 | -115.75825 | 14371 ft | 356 kts | 270° |
| 2026-05-05 17:50 | 35.89290 | -115.78890 | 14940 ft | 359 kts | 271° |
| 2026-05-05 17:50 | 35.89342 | -115.81979 | 15512 ft | 362 kts | 271° |
| 2026-05-05 17:50 | 35.89397 | -115.85097 | 16089 ft | 365 kts | 271° |
| 2026-05-05 17:50 | 35.89460 | -115.88191 | 16661 ft | 368 kts | 274° |
| 2026-05-05 17:51 | 35.89864 | -115.91307 | 17236 ft | 370 kts | 286° |
| 2026-05-05 17:51 | 35.90783 | -115.94272 | 17814 ft | 371 kts | 298° |
| 2026-05-05 17:51 | 35.92179 | -115.96953 | 18374 ft | 373 kts | 310° |
| 2026-05-05 17:51 | 35.93960 | -115.99284 | 18891 ft | 374 kts | 316° |
| 2026-05-05 17:52 | 35.95817 | -116.01560 | 19379 ft | 378 kts | 316° |
| 2026-05-05 17:52 | 35.97686 | -116.03860 | 19879 ft | 381 kts | 316° |
| 2026-05-05 17:52 | 35.99567 | -116.06187 | 20402 ft | 384 kts | 316° |
| 2026-05-05 17:52 | 36.01458 | -116.08530 | 20889 ft | 387 kts | 316° |
| 2026-05-05 17:53 | 36.03363 | -116.10889 | 21358 ft | 389 kts | 316° |
| 2026-05-05 17:53 | 36.05281 | -116.13264 | 21815 ft | 392 kts | 316° |
| 2026-05-05 17:53 | 36.07218 | -116.15662 | 22273 ft | 394 kts | 315° |
| 2026-05-05 17:53 | 36.09135 | -116.18038 | 22729 ft | 397 kts | 315° |